Observation data for Northwest San Angelo on 12/08/2018      Previous  Date       Current Mesonet Observations  Soil Data  Daily Summary Page  Observations in Plain Language
KASU 080600Z 03005KT 03/02 A3023 RMK A01 T00320018  RH  091%=      5-min Rain = 0
KASU 080605Z 02003KT 03/02 A3023 RMK A01 T00320018  RH  091%=      5-min Rain = 0
KASU 080610Z 02003KT 03/02 A3023 RMK A01 T00320018  RH  091%=      5-min Rain = 0.01
KASU 080615Z 02003KT 03/02 A3022 RMK A01 T00330018  RH  091%=      5-min Rain = 0
KASU 080620Z 02003KT 03/02 A3022 RMK A01 T00320017  RH  092%=      5-min Rain = 0.01
KASU 080625Z 00004KT 03/02 A3022 RMK A01 T00320017  RH  092%=      5-min Rain = 0
KASU 080630Z 35005KT 03/02 A3022 RMK A01 T00310017  RH  092%=      5-min Rain = 0.01
KASU 080635Z 36004KT 03/02 A3022 RMK A01 T00310017  RH  092%=      5-min Rain = 0
KASU 080640Z 36005KT 03/02 A3022 RMK A01 T00300016  RH  092%=      5-min Rain = 0
KASU 080645Z 35006KT 03/02 A3021 RMK A01 T00300016  RH  092%=      5-min Rain = 0
KASU 080650Z 36005KT 03/02 A3021 RMK A01 T00300016  RH  092%=      5-min Rain = 0
KASU 080655Z 35005KT 03/02 A3021 RMK A01 T00300016  RH  092%=      5-min Rain = 0
KASU 080700Z 34004KT 03/02 A3022 RMK A01 T00300016  RH  092%=      5-min Rain = 0
KASU 080705Z 34004KT 03/02 A3022 RMK A01 T00300017  RH  092%=      5-min Rain = 0
KASU 080710Z 35005KT 03/02 A3022 RMK A01 T00310017  RH  092%=      5-min Rain = 0.01
KASU 080715Z 35006KT 03/02 A3021 RMK A01 T00300016  RH  092%=      5-min Rain = 0
KASU 080720Z 35007KT 03/02 A3021 RMK A01 T00290016  RH  092%=      5-min Rain = 0
KASU 080725Z 34006KT 03/02 A302 RMK A01 T00300016  RH  092%=      5-min Rain = 0
KASU 080730Z 34006KT 03/02 A302 RMK A01 T00300016  RH  092%=      5-min Rain = 0
KASU 080735Z 35007KT 03/02 A302 RMK A01 T00290016  RH  092%=      5-min Rain = 0
KASU 080740Z 35007KT 03/02 A302 RMK A01 T00290015  RH  092%=      5-min Rain = 0.01
KASU 080745Z 35006KT 03/02 A3021 RMK A01 T00290015  RH  092%=      5-min Rain = 0
KASU 080750Z 34006KT 03/02 A3021 RMK A01 T00290015  RH  092%=      5-min Rain = 0
KASU 080755Z 34006KT 03/02 A302 RMK A01 T00290016  RH  092%=      5-min Rain = 0
KASU 080800Z 34007KT 03/02 A302 RMK A01 T00290016  RH  092%=      5-min Rain = 0
KASU 080805Z 34007KT 03/02 A302 RMK A01 T00290016  RH  092%=      5-min Rain = 0
KASU 080810Z 34007KT 03/02 A302 RMK A01 T00290016  RH  092%=      5-min Rain = 0
KASU 080815Z 34007KT 03/02 A302 RMK A01 T00290016  RH  092%=      5-min Rain = 0
KASU 080820Z 35007KT 03/02 A302 RMK A01 T00290015  RH  092%=      5-min Rain = 0
KASU 080825Z 34007KT 03/02 A302 RMK A01 T00290016  RH  092%=      5-min Rain = 0
KASU 080830Z 34008KT 03/02 A302 RMK A01 T00290015  RH  092%=      5-min Rain = 0
KASU 080835Z 34007KT 03/02 A302 RMK A01 T00280015  RH  092%=      5-min Rain = 0
KASU 080840Z 35007KT 03/02 A302 RMK A01 T00280015  RH  092%=      5-min Rain = 0
KASU 080845Z 35008KT 03/01 A302 RMK A01 T00280014  RH  092%=      5-min Rain = 0
KASU 080850Z 35009KT 03/01 A302 RMK A01 T00280014  RH  092%=      5-min Rain = 0.01
KASU 080855Z 34009KT 03/01 A3019 RMK A01 T00280014  RH  092%=      5-min Rain = 0
KASU 080900Z 34008KT 03/01 A3019 RMK A01 T00280014  RH  092%=      5-min Rain = 0
KASU 080905Z 35008KT 03/01 A302 RMK A01 T00270013  RH  092%=      5-min Rain = 0
KASU 080910Z 34009KT 03/01 A302 RMK A01 T00270013  RH  092%=      5-min Rain = 0
KASU 080915Z 35009KT 03/01 A302 RMK A01 T00260013  RH  092%=      5-min Rain = 0
KASU 080920Z 35010KT 03/01 A3019 RMK A01 T00260012  RH  092%=      5-min Rain = 0
KASU 080925Z 35009KT 03/01 A302 RMK A01 T00260012  RH  092%=      5-min Rain = 0
KASU 080930Z 34009KT 03/01 A302 RMK A01 T00260012  RH  092%=      5-min Rain = 0
KASU 080935Z 34009KT 03/01 A302 RMK A01 T00260012  RH  092%=      5-min Rain = 0.01
KASU 080940Z 34009KT 03/01 A302 RMK A01 T00250011  RH  092%=      5-min Rain = 0
KASU 080945Z 34009KT 02/01 A302 RMK A01 T00240010  RH  092%=      5-min Rain = 0
KASU 080950Z 33009KT 02/01 A302 RMK A01 T00230010  RH  092%=      5-min Rain = 0.01
KASU 080955Z 34010KT 02/01 A302 RMK A01 T00230010  RH  092%=      5-min Rain = 0
KASU 081000Z 34009KT 02/01 A302 RMK A01 T00230010  RH  092%=      5-min Rain = 0
KASU 081005Z 34010KT 02/01 A302 RMK A01 T00220009  RH  092%=      5-min Rain = 0
KASU 081010Z 34009KT 02/01 A302 RMK A01 T00230009  RH  092%=      5-min Rain = 0
KASU 081015Z 33009KT 02/01 A302 RMK A01 T00230010  RH  092%=      5-min Rain = 0.01
KASU 081020Z 33010KT 02/01 A302 RMK A01 T00230010  RH  092%=      5-min Rain = 0
KASU 081025Z 33010KT 02/01 A302 RMK A01 T00230010  RH  092%=      5-min Rain = 0
KASU 081030Z 33008KT 02/01 A302 RMK A01 T00230010  RH  092%=      5-min Rain = 0.01
KASU 081035Z 33009KT 02/01 A3021 RMK A01 T00230010  RH  092%=      5-min Rain = 0
KASU 081040Z 32008KT 02/01 A3021 RMK A01 T00230010  RH  092%=      5-min Rain = 0
KASU 081045Z 32009KT 02/01 A3021 RMK A01 T00230010  RH  092%=      5-min Rain = 0
KASU 081050Z 31008KT 02/01 A3021 RMK A01 T00230009  RH  092%=      5-min Rain = 0
KASU 081055Z 32009KT 02/01 A3021 RMK A01 T00220009  RH  092%=      5-min Rain = 0.01
KASU 081100Z 32010KT 02/01 A302 RMK A01 T00220008  RH  092%=      5-min Rain = 0.01
KASU 081105Z 33011KT 02/01 A302 RMK A01 T00210007  RH  092%=      5-min Rain = 0.01
KASU 081110Z 33010KT 02/01 A302 RMK A01 T00210007  RH  092%=      5-min Rain = 0
KASU 081115Z 33009KT 02/01 A302 RMK A01 T00210008  RH  092%=      5-min Rain = 0
KASU 081120Z 33007KT 02/01 A302 RMK A01 T00210008  RH  092%=      5-min Rain = 0.01
KASU 081125Z 33008G14KT 02/01 A302 RMK A01 T00220008  RH  092%=      5-min Rain = 0
KASU 081130Z 33010KT 02/01 A302 RMK A01 T00190006  RH  092%=      5-min Rain = 0
KASU 081135Z 33011KT 02/01 A3021 RMK A01 T00190005  RH  092%=      5-min Rain = 0.01
KASU 081140Z 33009KT 02/01 A3021 RMK A01 T00190005  RH  092%=      5-min Rain = 0
KASU 081145Z 33009KT 02/01 A3021 RMK A01 T00190005  RH  092%=      5-min Rain = 0.02
KASU 081150Z 33009KT 02/01 A3021 RMK A01 T00190005  RH  092%=      5-min Rain = 0.01
KASU 081155Z 34007KT 02/01 A3021 RMK A01 T00190005  RH  092%=      5-min Rain = 0.02
KASU 081200Z 34008KT 02/01 A3021 RMK A01 T00190005  RH  092%=      5-min Rain = 0.01
KASU 081205Z 35008KT 02/01 A3021 RMK A01 T00180005  RH  092%=      5-min Rain = 0.03
KASU 081210Z 33007KT 02/01 A3022 RMK A01 T00190005  RH  092%=      5-min Rain = 0.01
KASU 081215Z 32006KT 02/01 A3022 RMK A01 T00190006  RH  092%=      5-min Rain = 0.02
KASU 081220Z 32006KT 02/01 A3022 RMK A01 T00190006  RH  092%=      5-min Rain = 0.01
KASU 081225Z 32006KT 02/01 A3023 RMK A01 T00190006  RH  092%=      5-min Rain = 0.01
KASU 081230Z 34007KT 02/01 A3023 RMK A01 T00190005  RH  092%=      5-min Rain = 0
KASU 081235Z 35008KT 02/00 A3023 RMK A01 T00170004  RH  092%=      5-min Rain = 0.01
KASU 081240Z 35007KT 02/00 A3023 RMK A01 T00170003  RH  092%=      5-min Rain = 0.01
KASU 081245Z 36005KT 02/00 A3023 RMK A01 T00170003  RH  092%=      5-min Rain = 0
KASU 081250Z 35006KT 02/00 A3022 RMK A01 T00170003  RH  092%=      5-min Rain = 0.01
KASU 081255Z 35006KT 02/00 A3023 RMK A01 T00170003  RH  092%=      5-min Rain = 0
KASU 081300Z 33006KT 02/00 A3023 RMK A01 T00180004  RH  092%=      5-min Rain = 0
KASU 081305Z 33007KT 02/00 A3024 RMK A01 T00180004  RH  092%=      5-min Rain = 0
KASU 081310Z 34009KT 02/00 A3024 RMK A01 T00170003  RH  092%=      5-min Rain = 0.01
KASU 081315Z 34008KT 02/00 A3024 RMK A01 T00180003  RH  091%=      5-min Rain = 0
KASU 081320Z 34008KT 02/00 A3024 RMK A01 T00170003  RH  091%=      5-min Rain = 0
KASU 081325Z 33008KT 02/00 A3025 RMK A01 T00180003  RH  091%=      5-min Rain = 0
KASU 081330Z 33008KT 02/00 A3025 RMK A01 T00180003  RH  091%=      5-min Rain = 0
KASU 081335Z 33008KT 02/00 A3025 RMK A01 T00180003  RH  091%=      5-min Rain = 0
KASU 081340Z 33008KT 02/00 A3025 RMK A01 T00190004  RH  091%=      5-min Rain = 0
KASU 081345Z 33009KT 02/00 A3026 RMK A01 T00180003  RH  091%=      5-min Rain = 0
KASU 081350Z 33008KT 02/00 A3026 RMK A01 T00190003  RH  091%=      5-min Rain = 0
KASU 081355Z 32007KT 02/00 A3026 RMK A01 T00200004  RH  091%=      5-min Rain = 0
KASU 081400Z 32007KT 02/01 A3026 RMK A01 T00200005  RH  091%=      5-min Rain = 0
KASU 081405Z 33009KT 02/00 A3026 RMK A01 T00200004  RH  091%=      5-min Rain = 0
KASU 081410Z 33010KT 02/00 A3026 RMK A01 T00200004  RH  090%=      5-min Rain = 0
KASU 081415Z 33009KT 02/00 A3026 RMK A01 T00200004  RH  090%=      5-min Rain = 0
KASU 081420Z 33010KT 02/00 A3027 RMK A01 T00200004  RH  090%=      5-min Rain = 0
KASU 081425Z 33009KT 02/00 A3027 RMK A01 T00200004  RH  090%=      5-min Rain = 0
KASU 081430Z 33009KT 02/00 A3027 RMK A01 T00200004  RH  090%=      5-min Rain = 0
KASU 081435Z 33009KT 02/01 A3027 RMK A01 T00200005  RH  090%=      5-min Rain = 0
KASU 081440Z 33010KT 02/00 A3027 RMK A01 T00200004  RH  090%=      5-min Rain = 0
KASU 081445Z 33010KT 02/00 A3027 RMK A01 T00210004  RH  090%=      5-min Rain = 0
KASU 081450Z 33010KT 02/00 A3027 RMK A01 T00200004  RH  090%=      5-min Rain = 0
KASU 081455Z 33008KT 02/00 A3028 RMK A01 T00210004  RH  090%=      5-min Rain = 0
KASU 081500Z 32009KT 02/00 A3028 RMK A01 T00210004  RH  090%=      5-min Rain = 0
KASU 081505Z 33009KT 02/00 A3028 RMK A01 T00210004  RH  090%=      5-min Rain = 0
KASU 081510Z 33010KT 02/00 A3028 RMK A01 T00220004  RH  089%=      5-min Rain = 0
KASU 081515Z 33009G14KT 02/00 A3028 RMK A01 T00220004  RH  089%=      5-min Rain = 0
KASU 081520Z 33009G14KT 02/01 A3028 RMK A01 T00240005  RH  088%=      5-min Rain = 0
KASU 081525Z 34009KT 02/00 A3028 RMK A01 T00240004  RH  088%=      5-min Rain = 0
KASU 081530Z 34007KT 03/01 A3029 RMK A01 T00260006  RH  088%=      5-min Rain = 0.01
KASU 081535Z 33007KT 03/01 A3029 RMK A01 T00270007  RH  088%=      5-min Rain = 0
KASU 081540Z 34008KT 03/01 A3029 RMK A01 T00280008  RH  088%=      5-min Rain = 0
KASU 081545Z 34009KT 03/01 A3029 RMK A01 T00280007  RH  087%=      5-min Rain = 0
KASU 081550Z 34008KT 03/01 A3029 RMK A01 T00280007  RH  087%=      5-min Rain = 0
KASU 081555Z 32009KT 03/01 A303 RMK A01 T00290007  RH  087%=      5-min Rain = 0
KASU 081600Z 32010KT 03/01 A3029 RMK A01 T00290008  RH  087%=      5-min Rain = 0
KASU 081605Z 32010KT 03/01 A3029 RMK A01 T00290008  RH  087%=      5-min Rain = 0
KASU 081610Z 33009KT 03/01 A3029 RMK A01 T00320010  RH  087%=      5-min Rain = 0
KASU 081615Z 33009KT 03/01 A3029 RMK A01 T00330011  RH  087%=      5-min Rain = 0
KASU 081620Z 33009KT 04/01 A3029 RMK A01 T00350012  RH  087%=      5-min Rain = 0
KASU 081625Z 33011KT 03/01 A3029 RMK A01 T00340012  RH  087%=      5-min Rain = 0
KASU 081630Z 32011KT 03/01 A303 RMK A01 T00330011  RH  087%=      5-min Rain = 0
KASU 081635Z 32012KT 03/01 A303 RMK A01 T00330011  RH  086%=      5-min Rain = 0
KASU 081640Z 32012KT 04/01 A303 RMK A01 T00350012  RH  086%=      5-min Rain = 0
KASU 081645Z 32011KT 04/01 A303 RMK A01 T00360013  RH  086%=      5-min Rain = 0
KASU 081650Z 31011KT 04/01 A303 RMK A01 T00360013  RH  086%=      5-min Rain = 0
KASU 081655Z 32011KT 04/02 A303 RMK A01 T00380015  RH  086%=      5-min Rain = 0
KASU 081700Z 32011KT 04/02 A303 RMK A01 T00390015  RH  085%=      5-min Rain = 0
KASU 081705Z 32013KT 04/01 A303 RMK A01 T00380012  RH  085%=      5-min Rain = 0
KASU 081710Z 32013KT 04/01 A303 RMK A01 T00380012  RH  084%=      5-min Rain = 0
KASU 081715Z 33011KT 04/01 A3029 RMK A01 T00390013  RH  084%=      5-min Rain = 0
KASU 081720Z 32011KT 04/01 A3029 RMK A01 T00400014  RH  084%=      5-min Rain = 0
KASU 081725Z 33011G16KT 04/02 A3029 RMK A01 T00420016  RH  084%=      5-min Rain = 0
KASU 081730Z 32011KT 04/02 A3029 RMK A01 T00410015  RH  084%=      5-min Rain = 0
KASU 081735Z 32012KT 04/01 A3029 RMK A01 T00380012  RH  084%=      5-min Rain = 0
KASU 081740Z 32013KT 04/01 A3029 RMK A01 T00370011  RH  084%=      5-min Rain = 0
KASU 081745Z 32012KT 04/01 A3029 RMK A01 T00370011  RH  084%=      5-min Rain = 0
KASU 081750Z 32011G16KT 04/01 A3029 RMK A01 T00390013  RH  085%=      5-min Rain = 0
KASU 081755Z 32012KT 04/01 A3029 RMK A01 T00380012  RH  084%=      5-min Rain = 0
KASU 081800Z 33012KT 04/01 A3029 RMK A01 T00380012  RH  084%=      5-min Rain = 0
KASU 081805Z 32012KT 04/01 A3029 RMK A01 T00370011  RH  084%=      5-min Rain = 0
KASU 081810Z 32014KT 04/01 A3028 RMK A01 T00370010  RH  084%=      5-min Rain = 0
KASU 081815Z 33013KT 04/01 A3028 RMK A01 T00370010  RH  084%=      5-min Rain = 0
KASU 081820Z 33014KT 04/01 A3028 RMK A01 T00370010  RH  084%=      5-min Rain = 0
KASU 081825Z 33014KT 04/01 A3027 RMK A01 T00390012  RH  084%=      5-min Rain = 0
KASU 081830Z 33013G19KT 04/01 A3027 RMK A01 T00400013  RH  084%=      5-min Rain = 0
KASU 081835Z 33015G20KT 04/01 A3027 RMK A01 T00390011  RH  083%=      5-min Rain = 0
KASU 081840Z 33014G19KT 04/01 A3026 RMK A01 T00400012  RH  083%=      5-min Rain = 0
KASU 081845Z 32013KT 04/01 A3027 RMK A01 T00390011  RH  083%=      5-min Rain = 0
KASU 081850Z 32012KT 04/01 A3027 RMK A01 T00380011  RH  083%=      5-min Rain = 0
KASU 081855Z 32013KT 04/01 A3026 RMK A01 T00390012  RH  084%=      5-min Rain = 0
KASU 081900Z 32014KT 04/01 A3026 RMK A01 T00380010  RH  083%=      5-min Rain = 0
KASU 081905Z 32015KT 04/01 A3026 RMK A01 T00380009  RH  083%=      5-min Rain = 0
KASU 081910Z 33014G19KT 04/01 A3026 RMK A01 T00390010  RH  083%=      5-min Rain = 0
KASU 081915Z 32014KT 04/01 A3026 RMK A01 T00400011  RH  083%=      5-min Rain = 0
KASU 081920Z 33014KT 04/01 A3026 RMK A01 T00380009  RH  082%=      5-min Rain = 0
KASU 081925Z 32012KT 04/01 A3026 RMK A01 T00400011  RH  083%=      5-min Rain = 0
KASU 081930Z 32014KT 04/01 A3026 RMK A01 T00380009  RH  083%=      5-min Rain = 0
KASU 081935Z 32012G17KT 04/01 A3026 RMK A01 T00400011  RH  083%=      5-min Rain = 0
KASU 081940Z 32013KT 04/01 A3026 RMK A01 T00400011  RH  082%=      5-min Rain = 0
KASU 081945Z 32013KT 04/01 A3026 RMK A01 T00390009  RH  082%=      5-min Rain = 0
KASU 081950Z 31012KT 04/01 A3026 RMK A01 T00400011  RH  082%=      5-min Rain = 0
KASU 081955Z 32012KT 04/01 A3025 RMK A01 T00380009  RH  082%=      5-min Rain = 0
KASU 082000Z 32011KT 04/01 A3025 RMK A01 T00400010  RH  082%=      5-min Rain = 0
KASU 082005Z 32012KT 04/01 A3025 RMK A01 T00400010  RH  082%=      5-min Rain = 0
KASU 082010Z 31013KT 04/01 A3025 RMK A01 T00390009  RH  082%=      5-min Rain = 0
KASU 082015Z 32012KT 04/01 A3025 RMK A01 T00390009  RH  082%=      5-min Rain = 0
KASU 082020Z 32013KT 04/01 A3025 RMK A01 T00370007  RH  082%=      5-min Rain = 0
KASU 082025Z 32013KT 04/01 A3025 RMK A01 T00370007  RH  082%=      5-min Rain = 0
KASU 082030Z 32011KT 04/01 A3025 RMK A01 T00390009  RH  082%=      5-min Rain = 0
KASU 082035Z 32012KT 04/01 A3025 RMK A01 T00390008  RH  082%=      5-min Rain = 0
KASU 082040Z 31012G17KT 04/01 A3025 RMK A01 T00380008  RH  082%=      5-min Rain = 0
KASU 082045Z 32012KT 04/01 A3025 RMK A01 T00380009  RH  082%=      5-min Rain = 0
KASU 082050Z 32012KT 04/01 A3025 RMK A01 T00370008  RH  082%=      5-min Rain = 0
KASU 082055Z 33012KT 04/01 A3025 RMK A01 T00380008  RH  082%=      5-min Rain = 0
KASU 082100Z 33011KT 04/01 A3025 RMK A01 T00370007  RH  082%=      5-min Rain = 0
KASU 082105Z 32011G16KT 04/01 A3026 RMK A01 T00380008  RH  082%=      5-min Rain = 0
KASU 082110Z 32013KT 04/01 A3026 RMK A01 T00380007  RH  082%=      5-min Rain = 0
KASU 082115Z 32012KT 04/01 A3026 RMK A01 T00380008  RH  082%=      5-min Rain = 0
KASU 082120Z 32010KT 04/01 A3026 RMK A01 T00380008  RH  082%=      5-min Rain = 0
KASU 082125Z 33010KT 04/01 A3026 RMK A01 T00390008  RH  081%=      5-min Rain = 0
KASU 082130Z 32011KT 04/01 A3026 RMK A01 T00380007  RH  081%=      5-min Rain = 0
KASU 082135Z 32013KT 04/01 A3026 RMK A01 T00380006  RH  081%=      5-min Rain = 0
KASU 082140Z 32012KT 04/01 A3026 RMK A01 T00380007  RH  081%=      5-min Rain = 0
KASU 082145Z 33013KT 04/01 A3026 RMK A01 T00380006  RH  081%=      5-min Rain = 0
KASU 082150Z 32012KT 04/01 A3026 RMK A01 T00360006  RH  081%=      5-min Rain = 0
KASU 082155Z 32010KT 04/01 A3026 RMK A01 T00370006  RH  081%=      5-min Rain = 0
KASU 082200Z 33011KT 04/01 A3026 RMK A01 T00380007  RH  081%=      5-min Rain = 0
KASU 082205Z 33010KT 04/01 A3025 RMK A01 T00380006  RH  081%=      5-min Rain = 0
KASU 082210Z 33008KT 04/01 A3026 RMK A01 T00390007  RH  081%=      5-min Rain = 0
KASU 082215Z 33009G14KT 04/01 A3025 RMK A01 T00400008  RH  081%=      5-min Rain = 0
KASU 082220Z 33010KT 04/01 A3025 RMK A01 T00390006  RH  080%=      5-min Rain = 0
KASU 082225Z 33010KT 04/01 A3026 RMK A01 T00380006  RH  080%=      5-min Rain = 0
KASU 082230Z 32009KT 04/01 A3026 RMK A01 T00380006  RH  080%=      5-min Rain = 0
KASU 082235Z 31009KT 04/01 A3026 RMK A01 T00380006  RH  081%=      5-min Rain = 0
KASU 082240Z 31009KT 04/00 A3026 RMK A01 T00370004  RH  080%=      5-min Rain = 0
KASU 082245Z 31009G14KT 04/01 A3026 RMK A01 T00380005  RH  080%=      5-min Rain = 0
KASU 082250Z 31010KT 04/00 A3026 RMK A01 T00380004  RH  079%=      5-min Rain = 0
KASU 082255Z 31009KT 04/00 A3026 RMK A01 T00370003  RH  080%=      5-min Rain = 0
KASU 082300Z 31010KT 04/00 A3026 RMK A01 T00360003  RH  080%=      5-min Rain = 0
KASU 082305Z 31010KT 04/00 A3026 RMK A01 T00360003  RH  080%=      5-min Rain = 0
KASU 082310Z 32009KT 04/01 A3026 RMK A01 T00370005  RH  081%=      5-min Rain = 0
KASU 082315Z 32010KT 04/01 A3026 RMK A01 T00370005  RH  081%=      5-min Rain = 0
KASU 082320Z 32010KT 04/00 A3026 RMK A01 T00370004  RH  080%=      5-min Rain = 0
KASU 082325Z 32010KT 04/00 A3026 RMK A01 T00370004  RH  080%=      5-min Rain = 0
KASU 082330Z 32010KT 04/00 A3027 RMK A01 T00370004  RH  080%=      5-min Rain = 0
KASU 082335Z 31011KT 04/00 A3027 RMK A01 T00360003  RH  080%=      5-min Rain = 0
KASU 082340Z 32010KT 04/00 A3027 RMK A01 T00360002  RH  080%=      5-min Rain = 0
KASU 082345Z 33010KT 04/00 A3027 RMK A01 T00360003  RH  080%=      5-min Rain = 0
KASU 082350Z 33011KT 04/00 A3027 RMK A01 T00350003  RH  080%=      5-min Rain = 0
KASU 082355Z 33011KT 04/00 A3028 RMK A01 T00350002  RH  080%=      5-min Rain = 0
KASU 090000Z 32010KT 04/00 A3028 RMK A01 T00360003  RH  080%=      5-min Rain = 0
KASU 090005Z 32009KT 04/00 A3028 RMK A01 T00360003  RH  080%=      5-min Rain = 0
KASU 090010Z 32010KT 04/00 A3028 RMK A01 T00360003  RH  080%=      5-min Rain = 0
KASU 090015Z 32010KT 04/00 A3028 RMK A01 T00360003  RH  080%=      5-min Rain = 0
KASU 090020Z 32011KT 04/00 A3028 RMK A01 T00360003  RH  080%=      5-min Rain = 0
KASU 090025Z 32010KT 04/00 A3028 RMK A01 T00360003  RH  080%=      5-min Rain = 0
KASU 090030Z 33010KT 04/00 A3028 RMK A01 T00360003  RH  080%=      5-min Rain = 0
KASU 090035Z 33009KT 04/00 A3028 RMK A01 T00350003  RH  080%=      5-min Rain = 0
KASU 090040Z 34009KT 03/00 A3028 RMK A01 T00340003  RH  081%=      5-min Rain = 0
KASU 090045Z 33010KT 03/00 A3028 RMK A01 T00330001  RH  081%=      5-min Rain = 0
KASU 090050Z 33011KT 03/M00 A3028 RMK A01 T00311001  RH  080%=      5-min Rain = 0
KASU 090055Z 33009KT 03/M00 A3028 RMK A01 T00291003  RH  080%=      5-min Rain = 0
KASU 090100Z 33008KT 03/M00 A3029 RMK A01 T00271004  RH  081%=      5-min Rain = 0
KASU 090105Z 32006KT 03/M00 A3029 RMK A01 T00261004  RH  081%=      5-min Rain = 0
KASU 090110Z 31005KT 03/M00 A3029 RMK A01 T00251004  RH  082%=      5-min Rain = 0
KASU 090115Z 29004KT 02/M01 A3029 RMK A01 T00241005  RH  082%=      5-min Rain = 0
KASU 090120Z 29004KT 02/M01 A3029 RMK A01 T00231005  RH  082%=      5-min Rain = 0
KASU 090125Z 31004KT 02/M01 A303 RMK A01 T00221006  RH  083%=      5-min Rain = 0
KASU 090130Z 33005KT 02/M01 A303 RMK A01 T00191008  RH  083%=      5-min Rain = 0
KASU 090135Z 32005KT 02/M01 A303 RMK A01 T00181008  RH  084%=      5-min Rain = 0
KASU 090140Z 32005KT 02/M01 A303 RMK A01 T00171008  RH  085%=      5-min Rain = 0
KASU 090145Z 32005KT 02/M01 A303 RMK A01 T00161008  RH  085%=      5-min Rain = 0
KASU 090150Z 32004KT 01/M01 A303 RMK A01 T00141008  RH  086%=      5-min Rain = 0
KASU 090155Z 30004KT 02/M01 A3031 RMK A01 T00161006  RH  086%=      5-min Rain = 0
KASU 090200Z 30005KT 02/M01 A3031 RMK A01 T00171005  RH  086%=      5-min Rain = 0
KASU 090205Z 31005KT 02/M01 A303 RMK A01 T00171005  RH  086%=      5-min Rain = 0
KASU 090210Z 31005KT 02/M01 A303 RMK A01 T00171006  RH  086%=      5-min Rain = 0
KASU 090215Z 33004KT 02/M01 A303 RMK A01 T00161006  RH  086%=      5-min Rain = 0
KASU 090220Z 33005KT 02/M01 A303 RMK A01 T00171005  RH  087%=      5-min Rain = 0
KASU 090225Z 32005KT 02/M00 A3031 RMK A01 T00171004  RH  087%=      5-min Rain = 0
KASU 090230Z 31004KT 02/M00 A3031 RMK A01 T00181002  RH  087%=      5-min Rain = 0
KASU 090235Z 31005KT 02/M00 A3031 RMK A01 T00201001  RH  087%=      5-min Rain = 0
KASU 090240Z 30005KT 02/M00 A3031 RMK A01 T00201001  RH  087%=      5-min Rain = 0
KASU 090245Z 30006KT 02/M00 A3031 RMK A01 T00201001  RH  087%=      5-min Rain = 0
KASU 090250Z 30006KT 02/M00 A3031 RMK A01 T00211001  RH  087%=      5-min Rain = 0
KASU 090255Z 30005KT 02/M00 A3031 RMK A01 T00211002  RH  086%=      5-min Rain = 0
KASU 090300Z 30005KT 02/M00 A3031 RMK A01 T00211002  RH  086%=      5-min Rain = 0
KASU 090305Z 30005KT 02/M00 A3031 RMK A01 T00211001  RH  086%=      5-min Rain = 0
KASU 090310Z 30004KT 02/M00 A3031 RMK A01 T00211002  RH  086%=      5-min Rain = 0
KASU 090315Z 29004KT 02/M00 A3031 RMK A01 T00201003  RH  086%=      5-min Rain = 0
KASU 090320Z 29004KT 02/M00 A3032 RMK A01 T00181004  RH  086%=      5-min Rain = 0
KASU 090325Z 29004KT 02/M01 A3032 RMK A01 T00181005  RH  086%=      5-min Rain = 0
KASU 090330Z 30005KT 02/M00 A3032 RMK A01 T00181004  RH  086%=      5-min Rain = 0
KASU 090335Z 30004KT 02/M01 A3031 RMK A01 T00161005  RH  086%=      5-min Rain = 0
KASU 090340Z 30004KT 02/M00 A3032 RMK A01 T00171004  RH  087%=      5-min Rain = 0
KASU 090345Z 30004KT 02/M01 A3032 RMK A01 T00151006  RH  087%=      5-min Rain = 0
KASU 090350Z 30005KT 02/M01 A3032 RMK A01 T00151006  RH  087%=      5-min Rain = 0
KASU 090355Z 31004KT 01/M01 A3032 RMK A01 T00101011  RH  087%=      5-min Rain = 0
KASU 090400Z 30004KT 01/M01 A3032 RMK A01 T00111009  RH  087%=      5-min Rain = 0
KASU 090405Z 31003KT 01/M01 A3032 RMK A01 T00111008  RH  088%=      5-min Rain = 0
KASU 090410Z 32003KT 01/M01 A3032 RMK A01 T00121007  RH  088%=      5-min Rain = 0
KASU 090415Z 00003KT 01/M01 A3032 RMK A01 T00111008  RH  088%=      5-min Rain = 0
KASU 090420Z 36003KT 01/M01 A3032 RMK A01 T00111009  RH  088%=      5-min Rain = 0
KASU 090425Z 35003KT 01/M01 A3032 RMK A01 T00101008  RH  088%=      5-min Rain = 0
KASU 090430Z 35003KT 01/M01 A3032 RMK A01 T00051014  RH  088%=      5-min Rain = 0
KASU 090435Z 35003KT 00/M02 A3032 RMK A01 T00021016  RH  088%=      5-min Rain = 0
KASU 090440Z 35003KT 00/M02 A3032 RMK A01 T00011017  RH  088%=      5-min Rain = 0
KASU 090445Z 36004KT 00/M02 A3033 RMK A01 T00011017  RH  088%=      5-min Rain = 0
KASU 090450Z 01004KT 01/M01 A3032 RMK A01 T00071011  RH  089%=      5-min Rain = 0
KASU 090455Z 00003KT 01/M01 A3033 RMK A01 T00061012  RH  089%=      5-min Rain = 0
KASU 090500Z 36004KT 00/M01 A3033 RMK A01 T00041013  RH  089%=      5-min Rain = 0
KASU 090505Z 36004KT 00/M01 A3032 RMK A01 T00041013  RH  089%=      5-min Rain = 0
KASU 090510Z 35003KT 00/M02 A3033 RMK A01 T00011017  RH  089%=      5-min Rain = 0
KASU 090515Z 36004KT M00/M02 A3033 RMK A01 T10011018  RH  089%=      5-min Rain = 0
KASU 090520Z 36004KT 00/02 A3033 RMK A01 T00-00-17  RH  089%=      5-min Rain = 0
KASU 090525Z 34003KT M00/M02 A3033 RMK A01 T10011018  RH  089%=      5-min Rain = 0
KASU 090530Z 33003KT M00/M02 A3033 RMK A01 T10041021  RH  089%=      5-min Rain = 0
KASU 090535Z 33003KT M01/M02 A3033 RMK A01 T10051022  RH  089%=      5-min Rain = 0
KASU 090540Z 33003KT M01/M02 A3032 RMK A01 T10061022  RH  089%=      5-min Rain = 0
KASU 090545Z 34004KT M01/M02 A3032 RMK A01 T10081024  RH  089%=      5-min Rain = 0
KASU 090550Z 34003KT M01/M03 A3032 RMK A01 T10091025  RH  089%=      5-min Rain = 0
KASU 090555Z 35002KT M01/M03 A3032 RMK A01 T10091025  RH  089%=      5-min Rain = 0

Page generated in 0.0242 seconds.